sensor_id;sensor_type;location;lat;lon;timestamp;pressure;altitude;pressure_sealevel;temperature
19102;BMP280;9683;49.028;12.064;2023-04-16T00:00:12;96919.81;;;10.79
19102;BMP280;9683;49.028;12.064;2023-04-16T00:02:39;96926.19;;;10.78
19102;BMP280;9683;49.028;12.064;2023-04-16T00:05:06;96922.50;;;10.79
19102;BMP280;9683;49.028;12.064;2023-04-16T00:07:34;96927.00;;;10.79
19102;BMP280;9683;49.028;12.064;2023-04-16T00:10:01;96929.09;;;10.77
19102;BMP280;9683;49.028;12.064;2023-04-16T00:12:27;96920.84;;;10.78
19102;BMP280;9683;49.028;12.064;2023-04-16T00:14:54;96922.50;;;10.79
19102;BMP280;9683;49.028;12.064;2023-04-16T00:17:20;96930.47;;;10.79
19102;BMP280;9683;49.028;12.064;2023-04-16T00:19:47;96918.19;;;10.78
19102;BMP280;9683;49.028;12.064;2023-04-16T00:22:13;96928.28;;;10.76
19102;BMP280;9683;49.028;12.064;2023-04-16T00:24:41;96928.28;;;10.76
19102;BMP280;9683;49.028;12.064;2023-04-16T00:27:08;96930.94;;;10.76
19102;BMP280;9683;49.028;12.064;2023-04-16T00:29:35;96928.28;;;10.76
19102;BMP280;9683;49.028;12.064;2023-04-16T00:32:01;96933.13;;;10.79
19102;BMP280;9683;49.028;12.064;2023-04-16T00:34:28;96932.31;;;10.79
19102;BMP280;9683;49.028;12.064;2023-04-16T00:36:54;96932.44;;;10.72
19102;BMP280;9683;49.028;12.064;2023-04-16T00:39:21;96932.91;;;10.81
19102;BMP280;9683;49.028;12.064;2023-04-16T00:41:49;96933.72;;;10.81
19102;BMP280;9683;49.028;12.064;2023-04-16T00:44:15;96933.13;;;10.79
19102;BMP280;9683;49.028;12.064;2023-04-16T00:46:42;96929.31;;;10.75
19102;BMP280;9683;49.028;12.064;2023-04-16T00:49:09;96925.03;;;10.74
19102;BMP280;9683;49.028;12.064;2023-04-16T00:51:36;96922.38;;;10.74
19102;BMP280;9683;49.028;12.064;2023-04-16T00:54:03;96930.34;;;10.74
19102;BMP280;9683;49.028;12.064;2023-04-16T00:56:29;96924.22;;;10.74
19102;BMP280;9683;49.028;12.064;2023-04-16T00:58:57;96927.69;;;10.74
19102;BMP280;9683;49.028;12.064;2023-04-16T01:01:24;96926.88;;;10.74
19102;BMP280;9683;49.028;12.064;2023-04-16T01:03:51;96926.66;;;10.75
19102;BMP280;9683;49.028;12.064;2023-04-16T01:06:18;96930.13;;;10.76
19102;BMP280;9683;49.028;12.064;2023-04-16T01:08:45;96934.97;;;10.79
19102;BMP280;9683;49.028;12.064;2023-04-16T01:11:13;96924.69;;;10.82
19102;BMP280;9683;49.028;12.064;2023-04-16T01:13:39;96925.75;;;10.81
19102;BMP280;9683;49.028;12.064;2023-04-16T01:16:08;96929.78;;;10.84
19102;BMP280;9683;49.028;12.064;2023-04-16T01:18:36;96926.53;;;10.82
19102;BMP280;9683;49.028;12.064;2023-04-16T01:21:04;96925.50;;;10.83
19102;BMP280;9683;49.028;12.064;2023-04-16T01:23:31;96929.66;;;10.79
19102;BMP280;9683;49.028;12.064;2023-04-16T01:25:57;96930.69;;;10.78
19102;BMP280;9683;49.028;12.064;2023-04-16T01:28:24;96925.63;;;10.76
19102;BMP280;9683;49.028;12.064;2023-04-16T01:30:50;96929.66;;;10.79
19102;BMP280;9683;49.028;12.064;2023-04-16T01:33:18;96935.56;;;10.81
19102;BMP280;9683;49.028;12.064;2023-04-16T01:35:44;96939.59;;;10.83
19102;BMP280;9683;49.028;12.064;2023-04-16T01:38:12;96942.59;;;10.87
19102;BMP280;9683;49.028;12.064;2023-04-16T01:40:39;96942.59;;;10.87
19102;BMP280;9683;49.028;12.064;2023-04-16T01:43:06;96940.97;;;10.86
19102;BMP280;9683;49.028;12.064;2023-04-16T01:45:33;96950.38;;;10.88
19102;BMP280;9683;49.028;12.064;2023-04-16T01:48:00;96952.91;;;10.83
19102;BMP280;9683;49.028;12.064;2023-04-16T01:50:27;96942.50;;;10.82
19102;BMP280;9683;49.028;12.064;2023-04-16T01:52:55;96946.44;;;10.79
19102;BMP280;9683;49.028;12.064;2023-04-16T01:55:23;96943.56;;;10.81
19102;BMP280;9683;49.028;12.064;2023-04-16T01:57:49;96939.16;;;10.75
19102;BMP280;9683;49.028;12.064;2023-04-16T02:00:16;96944.13;;;10.71
19102;BMP280;9683;49.028;12.064;2023-04-16T02:02:42;96946.19;;;10.69
19102;BMP280;9683;49.028;12.064;2023-04-16T02:05:09;96944.00;;;10.66
19102;BMP280;9683;49.028;12.064;2023-04-16T02:07:36;96948.16;;;10.62
19102;BMP280;9683;49.028;12.064;2023-04-16T02:10:03;96945.72;;;10.61
19102;BMP280;9683;49.028;12.064;2023-04-16T02:12:31;96938.34;;;10.63
19102;BMP280;9683;49.028;12.064;2023-04-16T02:14:59;96953.25;;;10.64
19102;BMP280;9683;49.028;12.064;2023-04-16T02:17:25;96950.00;;;10.62
19102;BMP280;9683;49.028;12.064;2023-04-16T02:19:52;96957.66;;;10.58
19102;BMP280;9683;49.028;12.064;2023-04-16T02:22:18;96956.84;;;10.57
19102;BMP280;9683;49.028;12.064;2023-04-16T02:24:45;96958.00;;;10.62
19102;BMP280;9683;49.028;12.064;2023-04-16T02:27:11;96958.81;;;10.62
19102;BMP280;9683;49.028;12.064;2023-04-16T02:29:39;96960.78;;;10.67
19102;BMP280;9683;49.028;12.064;2023-04-16T02:32:06;96960.44;;;10.63
19102;BMP280;9683;49.028;12.064;2023-04-16T02:34:32;96968.19;;;10.65
19102;BMP280;9683;49.028;12.064;2023-04-16T02:36:59;96962.63;;;10.66
19102;BMP280;9683;49.028;12.064;2023-04-16T02:39:26;96965.88;;;10.68
19102;BMP280;9683;49.028;12.064;2023-04-16T02:41:52;96965.06;;;10.68
19102;BMP280;9683;49.028;12.064;2023-04-16T02:44:19;96977.69;;;10.72
19102;BMP280;9683;49.028;12.064;2023-04-16T02:46:47;96980.22;;;10.79
19102;BMP280;9683;49.028;12.064;2023-04-16T02:49:14;96981.03;;;10.79
19102;BMP280;9683;49.028;12.064;2023-04-16T02:51:40;96981.03;;;10.79
19102;BMP280;9683;49.028;12.064;2023-04-16T02:54:07;96985.88;;;10.82
19102;BMP280;9683;49.028;12.064;2023-04-16T02:56:33;96986.47;;;10.84
19102;BMP280;9683;49.028;12.064;2023-04-16T02:59:00;96980.34;;;10.84
19102;BMP280;9683;49.028;12.064;2023-04-16T03:01:26;96982.78;;;10.85
19102;BMP280;9683;49.028;12.064;2023-04-16T03:03:55;96987.84;;;10.87
19102;BMP280;9683;49.028;12.064;2023-04-16T03:06:21;96982.78;;;10.85
19102;BMP280;9683;49.028;12.064;2023-04-16T03:08:48;96980.13;;;10.85
19102;BMP280;9683;49.028;12.064;2023-04-16T03:11:14;96984.63;;;10.85
19102;BMP280;9683;49.028;12.064;2023-04-16T03:13:41;96983.00;;;10.84
19102;BMP280;9683;49.028;12.064;2023-04-16T03:16:08;96984.03;;;10.83
19102;BMP280;9683;49.028;12.064;2023-04-16T03:18:34;96996.31;;;10.84
19102;BMP280;9683;49.028;12.064;2023-04-16T03:21:03;96995.84;;;10.87
19102;BMP280;9683;49.028;12.064;2023-04-16T03:23:30;96989.94;;;10.85
19102;BMP280;9683;49.028;12.064;2023-04-16T03:25:56;96986.47;;;10.84
19102;BMP280;9683;49.028;12.064;2023-04-16T03:28:23;96992.38;;;10.86
19102;BMP280;9683;49.028;12.064;2023-04-16T03:30:50;96994.00;;;10.87
19102;BMP280;9683;49.028;12.064;2023-04-16T03:33:17;97001.97;;;10.87
19102;BMP280;9683;49.028;12.064;2023-04-16T03:35:44;96999.31;;;10.87
19102;BMP280;9683;49.028;12.064;2023-04-16T03:38:12;97005.22;;;10.89
19102;BMP280;9683;49.028;12.064;2023-04-16T03:40:38;96999.78;;;10.84
19102;BMP280;9683;49.028;12.064;2023-04-16T03:43:05;97002.19;;;10.86
19102;BMP280;9683;49.028;12.064;2023-04-16T03:45:32;97004.06;;;10.85
19102;BMP280;9683;49.028;12.064;2023-04-16T03:47:58;97003.25;;;10.85
19102;BMP280;9683;49.028;12.064;2023-04-16T03:50:25;96999.78;;;10.84
19102;BMP280;9683;49.028;12.064;2023-04-16T03:52:52;97006.94;;;10.84
19102;BMP280;9683;49.028;12.064;2023-04-16T03:55:19;97003.00;;;10.86
19102;BMP280;9683;49.028;12.064;2023-04-16T03:57:46;97007.16;;;10.82
19102;BMP280;9683;49.028;12.064;2023-04-16T04:00:13;97012.84;;;10.86
19102;BMP280;9683;49.028;12.064;2023-04-16T04:02:40;97009.63;;;10.84
19102;BMP280;9683;49.028;12.064;2023-04-16T04:05:07;97017.38;;;10.85
19102;BMP280;9683;49.028;12.064;2023-04-16T04:07:33;97019.22;;;10.85
19102;BMP280;9683;49.028;12.064;2023-04-16T04:10:00;97018.16;;;10.86
19102;BMP280;9683;49.028;12.064;2023-04-16T04:12:28;97021.88;;;10.85
19102;BMP280;9683;49.028;12.064;2023-04-16T04:14:55;97027.66;;;10.82
19102;BMP280;9683;49.028;12.064;2023-04-16T04:17:22;97030.56;;;10.80
19102;BMP280;9683;49.028;12.064;2023-04-16T04:19:48;97028.72;;;10.81
19102;BMP280;9683;49.028;12.064;2023-04-16T04:22:16;97027.09;;;10.80
19102;BMP280;9683;49.028;12.064;2023-04-16T04:24:43;97027.91;;;10.80
19102;BMP280;9683;49.028;12.064;2023-04-16T04:27:09;97036.69;;;10.81
19102;BMP280;9683;49.028;12.064;2023-04-16T04:29:37;97031.72;;;10.84
19102;BMP280;9683;49.028;12.064;2023-04-16T04:32:04;97040.16;;;10.81
19102;BMP280;9683;49.028;12.064;2023-04-16T04:34:31;97040.16;;;10.81
19102;BMP280;9683;49.028;12.064;2023-04-16T04:36:57;97050.56;;;10.83
19102;BMP280;9683;49.028;12.064;2023-04-16T04:39:24;97051.97;;;10.85
19102;BMP280;9683;49.028;12.064;2023-04-16T04:41:51;97048.03;;;10.88
19102;BMP280;9683;49.028;12.064;2023-04-16T04:44:18;97053.69;;;10.91
19102;BMP280;9683;49.028;12.064;2023-04-16T04:46:46;97056.72;;;10.95
19102;BMP280;9683;49.028;12.064;2023-04-16T04:49:12;97058.56;;;10.94
19102;BMP280;9683;49.028;12.064;2023-04-16T04:51:39;97052.19;;;10.95
19102;BMP280;9683;49.028;12.064;2023-04-16T04:54:06;97066.91;;;10.98
19102;BMP280;9683;49.028;12.064;2023-04-16T04:56:32;97064.25;;;10.98
19102;BMP280;9683;49.028;12.064;2023-04-16T04:58:59;97067.13;;;10.96
19102;BMP280;9683;49.028;12.064;2023-04-16T05:01:26;97068.97;;;10.96
19102;BMP280;9683;49.028;12.064;2023-04-16T05:03:54;97072.00;;;10.99
19102;BMP280;9683;49.028;12.064;2023-04-16T05:06:20;97069.34;;;10.99
19102;BMP280;9683;49.028;12.064;2023-04-16T05:08:47;97068.91;;;11.02
19102;BMP280;9683;49.028;12.064;2023-04-16T05:11:13;97068.91;;;11.02
19102;BMP280;9683;49.028;12.064;2023-04-16T05:13:40;97079.28;;;11.04
19102;BMP280;9683;49.028;12.064;2023-04-16T05:16:07;97074.56;;;11.06
19102;BMP280;9683;49.028;12.064;2023-04-16T05:18:33;97076.75;;;11.09
19102;BMP280;9683;49.028;12.064;2023-04-16T05:21:01;97084.28;;;11.12
19102;BMP280;9683;49.028;12.064;2023-04-16T05:23:28;97080.81;;;11.12
19102;BMP280;9683;49.028;12.064;2023-04-16T05:25:54;97087.97;;;11.11
19102;BMP280;9683;49.028;12.064;2023-04-16T05:28:21;97086.59;;;11.09
19102;BMP280;9683;49.028;12.064;2023-04-16T05:30:48;97089.84;;;11.11
19102;BMP280;9683;49.028;12.064;2023-04-16T05:33:14;97094.38;;;11.10
19102;BMP280;9683;49.028;12.064;2023-04-16T05:35:41;97099.22;;;11.13
19102;BMP280;9683;49.028;12.064;2023-04-16T05:38:09;97103.25;;;11.16
19102;BMP280;9683;49.028;12.064;2023-04-16T05:40:35;97110.91;;;11.12
19102;BMP280;9683;49.028;12.064;2023-04-16T05:43:02;97111.25;;;11.16
19102;BMP280;9683;49.028;12.064;2023-04-16T05:45:29;97102.81;;;11.19
19102;BMP280;9683;49.028;12.064;2023-04-16T05:47:57;97107.81;;;11.27
19102;BMP280;9683;49.028;12.064;2023-04-16T05:50:24;97111.03;;;11.29
19102;BMP280;9683;49.028;12.064;2023-04-16T05:52:51;97118.00;;;11.30
19102;BMP280;9683;49.028;12.064;2023-04-16T05:55:19;97114.03;;;11.32
19102;BMP280;9683;49.028;12.064;2023-04-16T05:57:46;97114.03;;;11.32
19102;BMP280;9683;49.028;12.064;2023-04-16T06:00:13;97112.78;;;11.35
19102;BMP280;9683;49.028;12.064;2023-04-16T06:02:39;97121.81;;;11.34
19102;BMP280;9683;49.028;12.064;2023-04-16T06:05:06;97117.44;;;11.39
19102;BMP280;9683;49.028;12.064;2023-04-16T06:07:33;97118.81;;;11.42
19102;BMP280;9683;49.028;12.064;2023-04-16T06:10:00;97117.78;;;11.43
19102;BMP280;9683;49.028;12.064;2023-04-16T06:12:27;97129.59;;;11.47
19102;BMP280;9683;49.028;12.064;2023-04-16T06:14:55;97120.31;;;11.49
19102;BMP280;9683;49.028;12.064;2023-04-16T06:17:21;97120.19;;;11.56
19102;BMP280;9683;49.028;12.064;2023-04-16T06:19:48;97127.25;;;11.62
19102;BMP280;9683;49.028;12.064;2023-04-16T06:22:14;97127.16;;;11.69
19102;BMP280;9683;49.028;12.064;2023-04-16T06:24:41;97118.50;;;11.73
19102;BMP280;9683;49.028;12.064;2023-04-16T06:27:08;97123.13;;;11.78
19102;BMP280;9683;49.028;12.064;2023-04-16T06:29:36;97126.69;;;11.83
19102;BMP280;9683;49.028;12.064;2023-04-16T06:32:03;97123.31;;;11.88
19102;BMP280;9683;49.028;12.064;2023-04-16T06:34:30;97131.66;;;11.91
19102;BMP280;9683;49.028;12.064;2023-04-16T06:36:56;97127.47;;;11.95
19102;BMP280;9683;49.028;12.064;2023-04-16T06:39:23;97129.44;;;12.00
19102;BMP280;9683;49.028;12.064;2023-04-16T06:41:50;97129.56;;;12.05
19102;BMP280;9683;49.028;12.064;2023-04-16T06:44:16;97134.06;;;12.05
19102;BMP280;9683;49.028;12.064;2023-04-16T06:46:44;97138.50;;;12.11
19102;BMP280;9683;49.028;12.064;2023-04-16T06:49:11;97138.50;;;12.11
19102;BMP280;9683;49.028;12.064;2023-04-16T06:51:37;97146.81;;;12.14
19102;BMP280;9683;49.028;12.064;2023-04-16T06:54:04;97137.78;;;12.15
19102;BMP280;9683;49.028;12.064;2023-04-16T06:56:31;97135.66;;;12.17
19102;BMP280;9683;49.028;12.064;2023-04-16T06:58:57;97141.94;;;12.23
19102;BMP280;9683;49.028;12.064;2023-04-16T07:01:25;97146.78;;;12.26
19102;BMP280;9683;49.028;12.064;2023-04-16T07:03:53;97150.16;;;12.33
19102;BMP280;9683;49.028;12.064;2023-04-16T07:06:19;97152.09;;;12.37
19102;BMP280;9683;49.028;12.064;2023-04-16T07:08:46;97153.22;;;12.41
19102;BMP280;9683;49.028;12.064;2023-04-16T07:11:13;97146.53;;;12.39
19102;BMP280;9683;49.028;12.064;2023-04-16T07:13:39;97146.03;;;12.42
19102;BMP280;9683;49.028;12.064;2023-04-16T07:16:06;97148.59;;;12.49
19102;BMP280;9683;49.028;12.064;2023-04-16T07:18:32;97147.88;;;12.53
19102;BMP280;9683;49.028;12.064;2023-04-16T07:21:00;97140.03;;;12.63
19102;BMP280;9683;49.028;12.064;2023-04-16T07:23:27;97153.50;;;12.68
19102;BMP280;9683;49.028;12.064;2023-04-16T07:25:54;97149.31;;;12.72
19102;BMP280;9683;49.028;12.064;2023-04-16T07:28:20;97152.88;;;12.78
19102;BMP280;9683;49.028;12.064;2023-04-16T07:30:48;97162.03;;;12.82
19102;BMP280;9683;49.028;12.064;2023-04-16T07:33:15;97156.59;;;12.77
19102;BMP280;9683;49.028;12.064;2023-04-16T07:35:41;97156.22;;;12.85
19102;BMP280;9683;49.028;12.064;2023-04-16T07:38:10;97161.88;;;12.88
19102;BMP280;9683;49.028;12.064;2023-04-16T07:40:37;97152.81;;;12.90
19102;BMP280;9683;49.028;12.064;2023-04-16T07:43:04;97160.34;;;12.93
19102;BMP280;9683;49.028;12.064;2023-04-16T07:45:30;97156.41;;;12.95
19102;BMP280;9683;49.028;12.064;2023-04-16T07:47:57;97154.06;;;12.99
19102;BMP280;9683;49.028;12.064;2023-04-16T07:50:23;97162.41;;;13.02
19102;BMP280;9683;49.028;12.064;2023-04-16T07:52:50;97163.22;;;13.03
19102;BMP280;9683;49.028;12.064;2023-04-16T07:55:18;97168.06;;;13.06
19102;BMP280;9683;49.028;12.064;2023-04-16T07:57:45;97172.13;;;13.08
19102;BMP280;9683;49.028;12.064;2023-04-16T08:00:12;97169.56;;;13.13
19102;BMP280;9683;49.028;12.064;2023-04-16T08:02:38;97167.69;;;13.14
19102;BMP280;9683;49.028;12.064;2023-04-16T08:05:06;97170.47;;;13.19
19102;BMP280;9683;49.028;12.064;2023-04-16T08:07:32;97173.72;;;13.21
19102;BMP280;9683;49.028;12.064;2023-04-16T08:09:59;97169.75;;;13.23
19102;BMP280;9683;49.028;12.064;2023-04-16T08:12:28;97175.19;;;13.28
19102;BMP280;9683;49.028;12.064;2023-04-16T08:14:54;97181.06;;;13.30
19102;BMP280;9683;49.028;12.064;2023-04-16T08:17:21;97173.88;;;13.31
19102;BMP280;9683;49.028;12.064;2023-04-16T08:19:48;97181.88;;;13.31
19102;BMP280;9683;49.028;12.064;2023-04-16T08:22:14;97191.53;;;13.32
19102;BMP280;9683;49.028;12.064;2023-04-16T08:24:41;97193.72;;;13.35
19102;BMP280;9683;49.028;12.064;2023-04-16T08:27:07;97192.66;;;13.36
19102;BMP280;9683;49.028;12.064;2023-04-16T08:29:36;97194.63;;;13.41
19102;BMP280;9683;49.028;12.064;2023-04-16T08:32:03;97193.00;;;13.40
19102;BMP280;9683;49.028;12.064;2023-04-16T08:34:30;97202.41;;;13.42
19102;BMP280;9683;49.028;12.064;2023-04-16T08:36:56;97201.09;;;13.45
19102;BMP280;9683;49.028;12.064;2023-04-16T08:39:23;97207.59;;;13.49
19102;BMP280;9683;49.028;12.064;2023-04-16T08:41:51;97204.69;;;13.50
19102;BMP280;9683;49.028;12.064;2023-04-16T08:44:23;97211.88;;;13.50
19102;BMP280;9683;49.028;12.064;2023-04-16T08:46:54;97212.13;;;13.48
19102;BMP280;9683;49.028;12.064;2023-04-16T08:49:24;97215.78;;;13.42
19102;BMP280;9683;49.028;12.064;2023-04-16T08:51:53;97216.22;;;13.39
19102;BMP280;9683;49.028;12.064;2023-04-16T08:54:30;97216.97;;;13.35
19102;BMP280;9683;49.028;12.064;2023-04-16T08:57:03;97221.97;;;13.31
19102;BMP280;9683;49.028;12.064;2023-04-16T08:59:31;97228.63;;;13.28
19102;BMP280;9683;49.028;12.064;2023-04-16T09:01:59;97231.84;;;13.30
19102;BMP280;9683;49.028;12.064;2023-04-16T09:04:26;97232.66;;;13.31
19102;BMP280;9683;49.028;12.064;2023-04-16T09:06:54;97228.13;;;13.31
19102;BMP280;9683;49.028;12.064;2023-04-16T09:09:21;97240.13;;;13.29
19102;BMP280;9683;49.028;12.064;2023-04-16T09:11:50;97233.97;;;13.28
19102;BMP280;9683;49.028;12.064;2023-04-16T09:14:17;97236.63;;;13.28
19102;BMP280;9683;49.028;12.064;2023-04-16T09:16:45;97242.53;;;13.30
19102;BMP280;9683;49.028;12.064;2023-04-16T09:19:14;97243.94;;;13.33
19102;BMP280;9683;49.028;12.064;2023-04-16T09:21:41;97246.94;;;13.37
19102;BMP280;9683;49.028;12.064;2023-04-16T09:24:10;97243.53;;;13.41
19102;BMP280;9683;49.028;12.064;2023-04-16T09:26:37;97237.16;;;13.42
19102;BMP280;9683;49.028;12.064;2023-04-16T09:29:03;97245.50;;;13.46
19102;BMP280;9683;49.028;12.064;2023-04-16T09:31:30;97251.97;;;13.50
19102;BMP280;9683;49.028;12.064;2023-04-16T09:34:00;97245.09;;;13.54
19102;BMP280;9683;49.028;12.064;2023-04-16T09:36:29;97248.91;;;13.58
19102;BMP280;9683;49.028;12.064;2023-04-16T09:38:57;97250.28;;;13.60
19102;BMP280;9683;49.028;12.064;2023-04-16T09:41:25;97242.34;;;13.65
19102;BMP280;9683;49.028;12.064;2023-04-16T09:43:56;97240.59;;;13.71
19102;BMP280;9683;49.028;12.064;2023-04-16T09:46:24;97244.63;;;13.73
19102;BMP280;9683;49.028;12.064;2023-04-16T09:48:55;97248.44;;;13.77
19102;BMP280;9683;49.028;12.064;2023-04-16T09:51:21;97249.00;;;13.80
19102;BMP280;9683;49.028;12.064;2023-04-16T09:53:51;97250.16;;;13.84
19102;BMP280;9683;49.028;12.064;2023-04-16T09:56:23;97257.91;;;13.85
19102;BMP280;9683;49.028;12.064;2023-04-16T09:58:50;97250.97;;;13.84
19102;BMP280;9683;49.028;12.064;2023-04-16T10:01:21;97248.50;;;13.83
19102;BMP280;9683;49.028;12.064;2023-04-16T10:03:49;97252.31;;;13.87
19102;BMP280;9683;49.028;12.064;2023-04-16T10:06:17;97250.69;;;13.86
19102;BMP280;9683;49.028;12.064;2023-04-16T10:08:45;97256.84;;;13.86
19102;BMP280;9683;49.028;12.064;2023-04-16T10:11:14;97258.16;;;13.84
19102;BMP280;9683;49.028;12.064;2023-04-16T10:13:41;97269.91;;;13.83
19102;BMP280;9683;49.028;12.064;2023-04-16T10:16:08;97259.31;;;13.88
19102;BMP280;9683;49.028;12.064;2023-04-16T10:18:35;97260.44;;;13.92
19102;BMP280;9683;49.028;12.064;2023-04-16T10:21:02;97264.47;;;13.94
19102;BMP280;9683;49.028;12.064;2023-04-16T10:23:29;97262.63;;;13.95
19102;BMP280;9683;49.028;12.064;2023-04-16T10:25:57;97261.72;;;13.89
19102;BMP280;9683;49.028;12.064;2023-04-16T10:28:26;97270.72;;;13.83
19102;BMP280;9683;49.028;12.064;2023-04-16T10:30:54;97268.06;;;13.83
19102;BMP280;9683;49.028;12.064;2023-04-16T10:33:22;97264.06;;;13.86
19102;BMP280;9683;49.028;12.064;2023-04-16T10:35:49;97266.50;;;13.87
19102;BMP280;9683;49.028;12.064;2023-04-16T10:38:26;97270.31;;;13.91
19102;BMP280;9683;49.028;12.064;2023-04-16T10:41:01;97271.69;;;13.94
19102;BMP280;9683;49.028;12.064;2023-04-16T10:43:32;97270.16;;;13.98
19102;BMP280;9683;49.028;12.064;2023-04-16T10:46:16;97267.31;;;14.04
19102;BMP280;9683;49.028;12.064;2023-04-16T10:48:43;97268.94;;;14.05
19102;BMP280;9683;49.028;12.064;2023-04-16T10:51:23;97267.72;;;14.13
19102;BMP280;9683;49.028;12.064;2023-04-16T10:53:50;97264.22;;;14.12
19102;BMP280;9683;49.028;12.064;2023-04-16T10:56:22;97265.13;;;14.18
19102;BMP280;9683;49.028;12.064;2023-04-16T10:58:52;97265.19;;;14.23
19102;BMP280;9683;49.028;12.064;2023-04-16T11:01:28;97275.06;;;14.22
19102;BMP280;9683;49.028;12.064;2023-04-16T11:03:55;97271.25;;;14.18
19102;BMP280;9683;49.028;12.064;2023-04-16T11:06:23;97275.41;;;14.26
19102;BMP280;9683;49.028;12.064;2023-04-16T11:08:51;97272.00;;;14.31
19102;BMP280;9683;49.028;12.064;2023-04-16T11:11:17;97271.84;;;14.37
19102;BMP280;9683;49.028;12.064;2023-04-16T11:13:45;97273.56;;;14.43
19102;BMP280;9683;49.028;12.064;2023-04-16T11:16:14;97281.41;;;14.50
19102;BMP280;9683;49.028;12.064;2023-04-16T11:18:41;97266.44;;;14.54
19102;BMP280;9683;49.028;12.064;2023-04-16T11:21:11;97274.88;;;14.62
19102;BMP280;9683;49.028;12.064;2023-04-16T11:23:45;97279.78;;;14.71
19102;BMP280;9683;49.028;12.064;2023-04-16T11:26:23;97272.66;;;14.76
19102;BMP280;9683;49.028;12.064;2023-04-16T11:28:50;97272.16;;;14.79
19102;BMP280;9683;49.028;12.064;2023-04-16T11:31:18;97272.22;;;14.84
19102;BMP280;9683;49.028;12.064;2023-04-16T11:33:45;97271.94;;;14.86
19102;BMP280;9683;49.028;12.064;2023-04-16T11:36:12;97272.75;;;14.86
19102;BMP280;9683;49.028;12.064;2023-04-16T11:38:38;97283.00;;;14.89
19102;BMP280;9683;49.028;12.064;2023-04-16T11:41:07;97281.13;;;14.90
19102;BMP280;9683;49.028;12.064;2023-04-16T11:43:34;97280.78;;;14.86
19102;BMP280;9683;49.028;12.064;2023-04-16T11:46:02;97270.34;;;14.85
19102;BMP280;9683;49.028;12.064;2023-04-16T11:48:49;97278.19;;;14.91
19102;BMP280;9683;49.028;12.064;2023-04-16T11:51:16;97287.78;;;14.87
19102;BMP280;9683;49.028;12.064;2023-04-16T11:53:48;97285.31;;;14.81
19102;BMP280;9683;49.028;12.064;2023-04-16T11:56:14;97283.91;;;14.78
19102;BMP280;9683;49.028;12.064;2023-04-16T11:58:42;97285.53;;;14.79
19102;BMP280;9683;49.028;12.064;2023-04-16T12:01:08;97278.84;;;14.82
19102;BMP280;9683;49.028;12.064;2023-04-16T12:03:39;97290.47;;;14.87
19102;BMP280;9683;49.028;12.064;2023-04-16T12:06:09;97286.50;;;14.90
19102;BMP280;9683;49.028;12.064;2023-04-16T12:08:36;97294.84;;;14.93
19102;BMP280;9683;49.028;12.064;2023-04-16T12:11:03;97292.16;;;14.93
19102;BMP280;9683;49.028;12.064;2023-04-16T12:13:30;97286.53;;;14.95
19102;BMP280;9683;49.028;12.064;2023-04-16T12:16:15;97289.28;;;15.00
19102;BMP280;9683;49.028;12.064;2023-04-16T12:18:59;97284.22;;;15.03
19102;BMP280;9683;49.028;12.064;2023-04-16T12:21:39;97291.22;;;15.04
19102;BMP280;9683;49.028;12.064;2023-04-16T12:24:07;97290.09;;;15.00
19102;BMP280;9683;49.028;12.064;2023-04-16T12:26:39;97286.06;;;14.98
19102;BMP280;9683;49.028;12.064;2023-04-16T12:29:19;97291.16;;;14.99
19102;BMP280;9683;49.028;12.064;2023-04-16T12:31:47;97286.06;;;14.98
19102;BMP280;9683;49.028;12.064;2023-04-16T12:34:14;97296.19;;;14.96
19102;BMP280;9683;49.028;12.064;2023-04-16T12:36:43;97296.13;;;14.91
19102;BMP280;9683;49.028;12.064;2023-04-16T12:39:11;97286.50;;;14.90
19102;BMP280;9683;49.028;12.064;2023-04-16T12:41:40;97287.03;;;14.92
19102;BMP280;9683;49.028;12.064;2023-04-16T12:44:09;97288.47;;;14.99
19102;BMP280;9683;49.028;12.064;2023-04-16T12:46:38;97288.84;;;15.08
19102;BMP280;9683;49.028;12.064;2023-04-16T12:49:04;97288.91;;;15.13
19102;BMP280;9683;49.028;12.064;2023-04-16T12:51:32;97285.78;;;15.21
19102;BMP280;9683;49.028;12.064;2023-04-16T12:54:00;97294.41;;;15.28
19102;BMP280;9683;49.028;12.064;2023-04-16T12:56:27;97292.09;;;15.37
19102;BMP280;9683;49.028;12.064;2023-04-16T12:58:54;97293.22;;;15.41
19102;BMP280;9683;49.028;12.064;2023-04-16T13:01:21;97295.72;;;15.47
19102;BMP280;9683;49.028;12.064;2023-04-16T13:03:48;97290.97;;;15.54
19102;BMP280;9683;49.028;12.064;2023-04-16T13:06:15;97291.56;;;15.62
19102;BMP280;9683;49.028;12.064;2023-04-16T13:08:43;97293.25;;;15.68
19102;BMP280;9683;49.028;12.064;2023-04-16T13:11:11;97290.06;;;15.71
19102;BMP280;9683;49.028;12.064;2023-04-16T13:13:38;97297.88;;;15.72
19102;BMP280;9683;49.028;12.064;2023-04-16T13:16:04;97300.59;;;15.77
19102;BMP280;9683;49.028;12.064;2023-04-16T13:18:33;97296.88;;;15.83
19102;BMP280;9683;49.028;12.064;2023-04-16T13:21:00;97291.03;;;15.86
19102;BMP280;9683;49.028;12.064;2023-04-16T13:23:27;97296.69;;;15.90
19102;BMP280;9683;49.028;12.064;2023-04-16T13:25:54;97297.22;;;15.92
19102;BMP280;9683;49.028;12.064;2023-04-16T13:28:22;97302.66;;;15.97
19102;BMP280;9683;49.028;12.064;2023-04-16T13:30:48;97300.78;;;15.97
19102;BMP280;9683;49.028;12.064;2023-04-16T13:33:15;97299.72;;;15.98
19102;BMP280;9683;49.028;12.064;2023-04-16T13:35:42;97302.13;;;16.00
19102;BMP280;9683;49.028;12.064;2023-04-16T13:38:08;97297.84;;;15.99
19102;BMP280;9683;49.028;12.064;2023-04-16T13:40:35;97297.06;;;16.03
19102;BMP280;9683;49.028;12.064;2023-04-16T13:43:01;97301.13;;;16.06
19102;BMP280;9683;49.028;12.064;2023-04-16T13:45:29;97296.31;;;16.13
19102;BMP280;9683;49.028;12.064;2023-04-16T13:47:56;97293.41;;;16.15
19102;BMP280;9683;49.028;12.064;2023-04-16T13:50:22;97292.34;;;16.21
19102;BMP280;9683;49.028;12.064;2023-04-16T13:52:49;97296.72;;;16.27
19102;BMP280;9683;49.028;12.064;2023-04-16T13:55:16;97301.34;;;16.36
19102;BMP280;9683;49.028;12.064;2023-04-16T13:57:44;97300.59;;;16.46
19102;BMP280;9683;49.028;12.064;2023-04-16T14:00:12;97293.94;;;16.54
19102;BMP280;9683;49.028;12.064;2023-04-16T14:02:41;97299.91;;;16.61
19102;BMP280;9683;49.028;12.064;2023-04-16T14:05:10;97293.19;;;16.63
19102;BMP280;9683;49.028;12.064;2023-04-16T14:07:37;97297.75;;;16.63
19102;BMP280;9683;49.028;12.064;2023-04-16T14:10:04;97295.91;;;16.68